sensor_id;sensor_type;location;lat;lon;timestamp;temperature;humidity
8537;DHT22;4306;50.210;10.628;2022-07-04T00:00:24;17.10;92.10
8537;DHT22;4306;50.210;10.628;2022-07-04T00:02:51;17.10;92.00
8537;DHT22;4306;50.210;10.628;2022-07-04T00:05:19;17.10;92.00
8537;DHT22;4306;50.210;10.628;2022-07-04T00:07:49;17.20;91.70
8537;DHT22;4306;50.210;10.628;2022-07-04T00:10:17;17.20;91.60
8537;DHT22;4306;50.210;10.628;2022-07-04T00:12:46;17.30;91.50
8537;DHT22;4306;50.210;10.628;2022-07-04T00:15:14;17.30;91.60
8537;DHT22;4306;50.210;10.628;2022-07-04T00:17:41;17.30;91.50
8537;DHT22;4306;50.210;10.628;2022-07-04T00:20:10;17.40;91.50
8537;DHT22;4306;50.210;10.628;2022-07-04T00:22:38;17.10;91.80
8537;DHT22;4306;50.210;10.628;2022-07-04T00:25:06;17.10;91.80
8537;DHT22;4306;50.210;10.628;2022-07-04T00:27:33;17.10;91.50
8537;DHT22;4306;50.210;10.628;2022-07-04T00:30:00;17.10;91.50
8537;DHT22;4306;50.210;10.628;2022-07-04T00:32:27;17.10;91.50
8537;DHT22;4306;50.210;10.628;2022-07-04T00:34:54;17.10;91.60
8537;DHT22;4306;50.210;10.628;2022-07-04T00:37:21;17.00;91.70
8537;DHT22;4306;50.210;10.628;2022-07-04T00:39:49;16.90;92.90
8537;DHT22;4306;50.210;10.628;2022-07-04T00:42:16;16.60;93.50
8537;DHT22;4306;50.210;10.628;2022-07-04T00:44:43;16.40;93.80
8537;DHT22;4306;50.210;10.628;2022-07-04T00:47:10;16.40;93.80
8537;DHT22;4306;50.210;10.628;2022-07-04T00:49:37;16.20;94.10
8537;DHT22;4306;50.210;10.628;2022-07-04T00:52:06;16.10;94.70
8537;DHT22;4306;50.210;10.628;2022-07-04T00:54:33;16.10;94.70
8537;DHT22;4306;50.210;10.628;2022-07-04T00:57:02;16.00;94.80
8537;DHT22;4306;50.210;10.628;2022-07-04T00:59:30;16.10;94.80
8537;DHT22;4306;50.210;10.628;2022-07-04T01:01:56;16.10;95.20
8537;DHT22;4306;50.210;10.628;2022-07-04T01:04:23;15.90;95.70
8537;DHT22;4306;50.210;10.628;2022-07-04T01:06:52;15.80;96.40
8537;DHT22;4306;50.210;10.628;2022-07-04T01:09:19;15.90;95.10
8537;DHT22;4306;50.210;10.628;2022-07-04T01:11:48;15.90;95.80
8537;DHT22;4306;50.210;10.628;2022-07-04T01:14:17;16.00;95.10
8537;DHT22;4306;50.210;10.628;2022-07-04T01:16:44;16.10;94.80
8537;DHT22;4306;50.210;10.628;2022-07-04T01:19:11;16.10;95.00
8537;DHT22;4306;50.210;10.628;2022-07-04T01:21:39;16.10;95.50
8537;DHT22;4306;50.210;10.628;2022-07-04T01:24:06;16.10;95.10
8537;DHT22;4306;50.210;10.628;2022-07-04T01:26:33;16.10;95.60
8537;DHT22;4306;50.210;10.628;2022-07-04T01:29:00;16.00;96.20
8537;DHT22;4306;50.210;10.628;2022-07-04T01:31:27;15.80;96.40
8537;DHT22;4306;50.210;10.628;2022-07-04T01:33:54;15.70;97.10
8537;DHT22;4306;50.210;10.628;2022-07-04T01:36:21;15.70;96.40
8537;DHT22;4306;50.210;10.628;2022-07-04T01:38:50;15.80;96.50
8537;DHT22;4306;50.210;10.628;2022-07-04T01:41:16;15.80;96.00
8537;DHT22;4306;50.210;10.628;2022-07-04T01:43:43;15.90;95.60
8537;DHT22;4306;50.210;10.628;2022-07-04T01:46:10;15.90;95.40
8537;DHT22;4306;50.210;10.628;2022-07-04T01:48:37;16.00;95.30
8537;DHT22;4306;50.210;10.628;2022-07-04T01:51:04;16.00;95.30
8537;DHT22;4306;50.210;10.628;2022-07-04T01:53:35;16.10;95.30
8537;DHT22;4306;50.210;10.628;2022-07-04T01:56:04;16.10;95.20
8537;DHT22;4306;50.210;10.628;2022-07-04T01:58:31;16.00;96.20
8537;DHT22;4306;50.210;10.628;2022-07-04T02:00:57;15.90;96.20
8537;DHT22;4306;50.210;10.628;2022-07-04T02:03:42;15.70;97.30
8537;DHT22;4306;50.210;10.628;2022-07-04T02:06:09;15.50;97.40
8537;DHT22;4306;50.210;10.628;2022-07-04T02:08:36;15.60;96.30
8537;DHT22;4306;50.210;10.628;2022-07-04T02:11:21;15.70;96.20
8537;DHT22;4306;50.210;10.628;2022-07-04T02:13:48;15.70;95.80
8537;DHT22;4306;50.210;10.628;2022-07-04T02:16:14;15.70;96.70
8537;DHT22;4306;50.210;10.628;2022-07-04T02:18:41;15.60;97.60
8537;DHT22;4306;50.210;10.628;2022-07-04T02:21:08;15.40;97.80
8537;DHT22;4306;50.210;10.628;2022-07-04T02:23:35;15.30;97.70
8537;DHT22;4306;50.210;10.628;2022-07-04T02:26:02;15.30;97.80
8537;DHT22;4306;50.210;10.628;2022-07-04T02:28:30;15.30;98.30
8537;DHT22;4306;50.210;10.628;2022-07-04T02:30:57;15.30;97.50
8537;DHT22;4306;50.210;10.628;2022-07-04T02:33:24;15.30;97.60
8537;DHT22;4306;50.210;10.628;2022-07-04T02:35:51;15.30;97.60
8537;DHT22;4306;50.210;10.628;2022-07-04T02:38:17;15.40;97.30
8537;DHT22;4306;50.210;10.628;2022-07-04T02:40:44;15.40;97.20
8537;DHT22;4306;50.210;10.628;2022-07-04T02:43:11;15.40;97.10
8537;DHT22;4306;50.210;10.628;2022-07-04T02:45:40;15.40;97.90
8537;DHT22;4306;50.210;10.628;2022-07-04T02:48:07;15.20;98.40
8537;DHT22;4306;50.210;10.628;2022-07-04T02:50:33;15.10;98.30
8537;DHT22;4306;50.210;10.628;2022-07-04T02:53:00;15.10;99.00
8537;DHT22;4306;50.210;10.628;2022-07-04T02:55:27;15.10;98.60
8537;DHT22;4306;50.210;10.628;2022-07-04T02:57:54;15.10;98.80
8537;DHT22;4306;50.210;10.628;2022-07-04T03:00:21;15.10;99.10
8537;DHT22;4306;50.210;10.628;2022-07-04T03:02:50;15.10;98.50
8537;DHT22;4306;50.210;10.628;2022-07-04T03:05:16;15.20;98.60
8537;DHT22;4306;50.210;10.628;2022-07-04T03:07:43;15.10;99.30
8537;DHT22;4306;50.210;10.628;2022-07-04T03:10:10;15.10;99.70
8537;DHT22;4306;50.210;10.628;2022-07-04T03:12:37;14.90;99.90
8537;DHT22;4306;50.210;10.628;2022-07-04T03:15:05;14.90;99.90
8537;DHT22;4306;50.210;10.628;2022-07-04T03:17:32;14.90;99.90
8537;DHT22;4306;50.210;10.628;2022-07-04T03:20:01;14.90;99.90
8537;DHT22;4306;50.210;10.628;2022-07-04T03:22:27;14.90;99.90
8537;DHT22;4306;50.210;10.628;2022-07-04T03:24:54;15.00;99.90
8537;DHT22;4306;50.210;10.628;2022-07-04T03:27:21;15.10;99.90
8537;DHT22;4306;50.210;10.628;2022-07-04T03:29:48;15.10;99.90
8537;DHT22;4306;50.210;10.628;2022-07-04T03:32:15;15.10;99.50
8537;DHT22;4306;50.210;10.628;2022-07-04T03:34:42;15.20;99.50
8537;DHT22;4306;50.210;10.628;2022-07-04T03:37:10;15.20;99.30
8537;DHT22;4306;50.210;10.628;2022-07-04T03:39:37;15.30;99.60
8537;DHT22;4306;50.210;10.628;2022-07-04T03:42:05;15.30;99.40
8537;DHT22;4306;50.210;10.628;2022-07-04T03:44:32;15.30;99.80
8537;DHT22;4306;50.210;10.628;2022-07-04T03:46:59;15.40;99.90
8537;DHT22;4306;50.210;10.628;2022-07-04T03:49:26;15.40;99.90
8537;DHT22;4306;50.210;10.628;2022-07-04T03:51:53;15.30;99.90
8537;DHT22;4306;50.210;10.628;2022-07-04T03:54:21;15.30;99.90
8537;DHT22;4306;50.210;10.628;2022-07-04T03:56:48;15.30;99.90
8537;DHT22;4306;50.210;10.628;2022-07-04T03:59:15;15.30;99.90
8537;DHT22;4306;50.210;10.628;2022-07-04T04:01:42;15.40;99.90
8537;DHT22;4306;50.210;10.628;2022-07-04T04:04:09;15.40;99.90
8537;DHT22;4306;50.210;10.628;2022-07-04T04:06:53;15.50;99.90
8537;DHT22;4306;50.210;10.628;2022-07-04T04:09:21;15.50;99.90
8537;DHT22;4306;50.210;10.628;2022-07-04T04:11:50;15.60;99.80
8537;DHT22;4306;50.210;10.628;2022-07-04T04:14:17;15.60;99.90
8537;DHT22;4306;50.210;10.628;2022-07-04T04:16:44;15.70;99.90
8537;DHT22;4306;50.210;10.628;2022-07-04T04:19:11;15.60;99.90
8537;DHT22;4306;50.210;10.628;2022-07-04T04:21:38;15.60;99.90
8537;DHT22;4306;50.210;10.628;2022-07-04T04:24:05;15.60;99.90
8537;DHT22;4306;50.210;10.628;2022-07-04T04:26:35;15.60;99.90
8537;DHT22;4306;50.210;10.628;2022-07-04T04:29:02;15.50;99.90
8537;DHT22;4306;50.210;10.628;2022-07-04T04:31:29;15.60;99.90
8537;DHT22;4306;50.210;10.628;2022-07-04T04:33:56;15.60;99.90
8537;DHT22;4306;50.210;10.628;2022-07-04T04:36:23;15.60;99.90
8537;DHT22;4306;50.210;10.628;2022-07-04T04:38:50;15.60;99.90
8537;DHT22;4306;50.210;10.628;2022-07-04T04:41:17;15.70;99.90
8537;DHT22;4306;50.210;10.628;2022-07-04T04:43:45;15.80;99.90
8537;DHT22;4306;50.210;10.628;2022-07-04T04:46:12;15.80;99.90
8537;DHT22;4306;50.210;10.628;2022-07-04T04:48:39;16.00;99.90
8537;DHT22;4306;50.210;10.628;2022-07-04T04:51:06;16.00;99.90
8537;DHT22;4306;50.210;10.628;2022-07-04T04:53:33;16.10;99.90
8537;DHT22;4306;50.210;10.628;2022-07-04T04:56:00;16.20;99.90
8537;DHT22;4306;50.210;10.628;2022-07-04T04:58:27;16.30;99.90
8537;DHT22;4306;50.210;10.628;2022-07-04T05:00:55;16.30;99.90
8537;DHT22;4306;50.210;10.628;2022-07-04T05:03:22;16.30;99.90
8537;DHT22;4306;50.210;10.628;2022-07-04T05:05:49;16.40;99.90
8537;DHT22;4306;50.210;10.628;2022-07-04T05:08:16;16.50;99.90
8537;DHT22;4306;50.210;10.628;2022-07-04T05:10:43;16.50;99.90
8537;DHT22;4306;50.210;10.628;2022-07-04T05:13:10;16.60;99.90
8537;DHT22;4306;50.210;10.628;2022-07-04T05:15:37;16.70;99.90
8537;DHT22;4306;50.210;10.628;2022-07-04T05:18:05;16.80;99.90
8537;DHT22;4306;50.210;10.628;2022-07-04T05:20:32;16.90;99.90
8537;DHT22;4306;50.210;10.628;2022-07-04T05:22:59;16.90;99.90
8537;DHT22;4306;50.210;10.628;2022-07-04T05:25:26;17.00;99.90
8537;DHT22;4306;50.210;10.628;2022-07-04T05:27:53;17.10;99.90
8537;DHT22;4306;50.210;10.628;2022-07-04T05:30:20;17.20;99.90
8537;DHT22;4306;50.210;10.628;2022-07-04T05:32:47;17.20;99.90
8537;DHT22;4306;50.210;10.628;2022-07-04T05:35:15;17.30;99.90
8537;DHT22;4306;50.210;10.628;2022-07-04T05:37:42;17.40;99.90
8537;DHT22;4306;50.210;10.628;2022-07-04T05:40:10;17.40;99.90
8537;DHT22;4306;50.210;10.628;2022-07-04T05:42:37;17.50;99.90
8537;DHT22;4306;50.210;10.628;2022-07-04T05:45:05;17.60;99.90
8537;DHT22;4306;50.210;10.628;2022-07-04T05:47:33;17.60;99.90
8537;DHT22;4306;50.210;10.628;2022-07-04T05:49:59;17.70;99.80
8537;DHT22;4306;50.210;10.628;2022-07-04T05:52:28;17.70;99.80
8537;DHT22;4306;50.210;10.628;2022-07-04T05:54:55;17.80;99.90
8537;DHT22;4306;50.210;10.628;2022-07-04T05:57:22;17.90;99.80
8537;DHT22;4306;50.210;10.628;2022-07-04T05:59:49;18.00;99.60
8537;DHT22;4306;50.210;10.628;2022-07-04T06:02:15;18.00;99.20
8537;DHT22;4306;50.210;10.628;2022-07-04T06:04:42;18.00;99.10
8537;DHT22;4306;50.210;10.628;2022-07-04T06:07:09;18.10;98.90
8537;DHT22;4306;50.210;10.628;2022-07-04T06:09:38;18.20;99.10
8537;DHT22;4306;50.210;10.628;2022-07-04T06:12:05;18.30;98.60
8537;DHT22;4306;50.210;10.628;2022-07-04T06:14:32;18.50;98.20
8537;DHT22;4306;50.210;10.628;2022-07-04T06:16:59;18.60;98.20
8537;DHT22;4306;50.210;10.628;2022-07-04T06:19:26;18.80;98.10
8537;DHT22;4306;50.210;10.628;2022-07-04T06:21:53;19.10;98.00
8537;DHT22;4306;50.210;10.628;2022-07-04T06:24:20;19.70;97.40
8537;DHT22;4306;50.210;10.628;2022-07-04T06:26:48;20.30;96.10
8537;DHT22;4306;50.210;10.628;2022-07-04T06:29:15;20.60;94.90
8537;DHT22;4306;50.210;10.628;2022-07-04T06:31:42;20.90;95.50
8537;DHT22;4306;50.210;10.628;2022-07-04T06:34:09;21.00;93.90
8537;DHT22;4306;50.210;10.628;2022-07-04T06:36:53;20.80;94.40
8537;DHT22;4306;50.210;10.628;2022-07-04T06:39:20;20.70;94.30
8537;DHT22;4306;50.210;10.628;2022-07-04T06:41:49;20.80;94.40
8537;DHT22;4306;50.210;10.628;2022-07-04T06:44:16;20.60;94.90
8537;DHT22;4306;50.210;10.628;2022-07-04T06:46:42;20.60;94.70
8537;DHT22;4306;50.210;10.628;2022-07-04T06:49:11;20.70;94.20
8537;DHT22;4306;50.210;10.628;2022-07-04T06:51:38;20.60;94.30
8537;DHT22;4306;50.210;10.628;2022-07-04T06:54:05;20.50;94.80
8537;DHT22;4306;50.210;10.628;2022-07-04T06:56:32;20.60;94.50
8537;DHT22;4306;50.210;10.628;2022-07-04T06:59:00;20.50;94.20
8537;DHT22;4306;50.210;10.628;2022-07-04T07:01:28;20.40;94.10
8537;DHT22;4306;50.210;10.628;2022-07-04T07:03:55;20.50;94.60
8537;DHT22;4306;50.210;10.628;2022-07-04T07:06:22;20.60;94.50
8537;DHT22;4306;50.210;10.628;2022-07-04T07:08:49;20.60;94.30
8537;DHT22;4306;50.210;10.628;2022-07-04T07:11:16;20.60;94.00
8537;DHT22;4306;50.210;10.628;2022-07-04T07:13:47;20.70;94.30
8537;DHT22;4306;50.210;10.628;2022-07-04T07:16:17;20.90;94.40
8537;DHT22;4306;50.210;10.628;2022-07-04T07:18:45;21.00;94.20
8537;DHT22;4306;50.210;10.628;2022-07-04T07:21:12;21.10;93.40
8537;DHT22;4306;50.210;10.628;2022-07-04T07:23:39;21.10;93.50
8537;DHT22;4306;50.210;10.628;2022-07-04T07:26:06;21.00;93.60
8537;DHT22;4306;50.210;10.628;2022-07-04T07:28:34;21.10;93.50
8537;DHT22;4306;50.210;10.628;2022-07-04T07:31:01;21.00;93.50
8537;DHT22;4306;50.210;10.628;2022-07-04T07:33:29;21.10;93.50
8537;DHT22;4306;50.210;10.628;2022-07-04T07:35:56;21.10;93.40
8537;DHT22;4306;50.210;10.628;2022-07-04T07:38:23;21.20;92.80
8537;DHT22;4306;50.210;10.628;2022-07-04T07:40:50;21.10;93.30
8537;DHT22;4306;50.210;10.628;2022-07-04T07:43:18;21.20;93.30
8537;DHT22;4306;50.210;10.628;2022-07-04T07:45:45;21.30;93.50
8537;DHT22;4306;50.210;10.628;2022-07-04T07:48:12;21.30;93.20
8537;DHT22;4306;50.210;10.628;2022-07-04T07:50:40;21.40;93.00
8537;DHT22;4306;50.210;10.628;2022-07-04T07:53:07;21.40;93.10
8537;DHT22;4306;50.210;10.628;2022-07-04T07:55:34;21.40;92.90
8537;DHT22;4306;50.210;10.628;2022-07-04T07:58:01;21.50;92.80
8537;DHT22;4306;50.210;10.628;2022-07-04T08:00:28;21.60;92.80
8537;DHT22;4306;50.210;10.628;2022-07-04T08:02:55;21.50;92.10
8537;DHT22;4306;50.210;10.628;2022-07-04T08:05:40;21.50;92.00
8537;DHT22;4306;50.210;10.628;2022-07-04T08:08:07;21.40;92.40
8537;DHT22;4306;50.210;10.628;2022-07-04T08:10:36;21.50;92.40
8537;DHT22;4306;50.210;10.628;2022-07-04T08:13:03;21.60;92.40
8537;DHT22;4306;50.210;10.628;2022-07-04T08:15:30;21.60;92.20
8537;DHT22;4306;50.210;10.628;2022-07-04T08:17:56;21.70;92.50
8537;DHT22;4306;50.210;10.628;2022-07-04T08:20:24;21.70;92.20
8537;DHT22;4306;50.210;10.628;2022-07-04T08:22:52;21.80;92.20
8537;DHT22;4306;50.210;10.628;2022-07-04T08:25:19;21.80;92.10
8537;DHT22;4306;50.210;10.628;2022-07-04T08:27:46;21.90;92.00
8537;DHT22;4306;50.210;10.628;2022-07-04T08:30:14;21.90;91.70
8537;DHT22;4306;50.210;10.628;2022-07-04T08:32:40;22.10;92.00
8537;DHT22;4306;50.210;10.628;2022-07-04T08:35:08;22.10;91.80
8537;DHT22;4306;50.210;10.628;2022-07-04T08:37:35;22.20;91.90
8537;DHT22;4306;50.210;10.628;2022-07-04T08:40:04;22.20;90.90
8537;DHT22;4306;50.210;10.628;2022-07-04T08:42:36;22.30;91.10
8537;DHT22;4306;50.210;10.628;2022-07-04T08:45:05;22.50;90.40
8537;DHT22;4306;50.210;10.628;2022-07-04T08:47:34;22.50;90.60
8537;DHT22;4306;50.210;10.628;2022-07-04T08:50:08;22.60;90.40
8537;DHT22;4306;50.210;10.628;2022-07-04T08:52:40;22.80;90.70
8537;DHT22;4306;50.210;10.628;2022-07-04T08:55:10;22.90;89.80
8537;DHT22;4306;50.210;10.628;2022-07-04T08:57:56;22.90;89.30
8537;DHT22;4306;50.210;10.628;2022-07-04T09:00:40;23.00;88.50
8537;DHT22;4306;50.210;10.628;2022-07-04T09:03:08;22.80;88.90
8537;DHT22;4306;50.210;10.628;2022-07-04T09:05:35;22.80;87.90
8537;DHT22;4306;50.210;10.628;2022-07-04T09:08:03;22.80;88.30
8537;DHT22;4306;50.210;10.628;2022-07-04T09:10:32;22.80;87.90
8537;DHT22;4306;50.210;10.628;2022-07-04T09:13:00;22.90;88.00
8537;DHT22;4306;50.210;10.628;2022-07-04T09:15:29;23.00;86.30
8537;DHT22;4306;50.210;10.628;2022-07-04T09:17:57;22.90;86.10
8537;DHT22;4306;50.210;10.628;2022-07-04T09:20:25;23.00;87.40
8537;DHT22;4306;50.210;10.628;2022-07-04T09:22:54;23.10;87.30
8537;DHT22;4306;50.210;10.628;2022-07-04T09:25:22;23.10;84.90
8537;DHT22;4306;50.210;10.628;2022-07-04T09:27:52;23.10;85.10
8537;DHT22;4306;50.210;10.628;2022-07-04T09:30:20;23.00;81.70
8537;DHT22;4306;50.210;10.628;2022-07-04T09:32:49;22.80;81.50
8537;DHT22;4306;50.210;10.628;2022-07-04T09:35:19;23.00;84.50
8537;DHT22;4306;50.210;10.628;2022-07-04T09:37:48;23.20;83.50
8537;DHT22;4306;50.210;10.628;2022-07-04T09:40:24;23.30;83.60
8537;DHT22;4306;50.210;10.628;2022-07-04T09:42:53;23.30;83.70
8537;DHT22;4306;50.210;10.628;2022-07-04T09:45:20;23.30;84.00
8537;DHT22;4306;50.210;10.628;2022-07-04T09:47:50;23.40;82.40
8537;DHT22;4306;50.210;10.628;2022-07-04T09:50:18;23.40;82.60
8537;DHT22;4306;50.210;10.628;2022-07-04T09:52:51;23.50;81.80
8537;DHT22;4306;50.210;10.628;2022-07-04T09:55:24;23.60;81.80
8537;DHT22;4306;50.210;10.628;2022-07-04T09:57:53;23.60;82.30
8537;DHT22;4306;50.210;10.628;2022-07-04T10:00:22;23.60;80.20
8537;DHT22;4306;50.210;10.628;2022-07-04T10:02:49;23.70;80.80
8537;DHT22;4306;50.210;10.628;2022-07-04T10:05:21;23.60;80.00
8537;DHT22;4306;50.210;10.628;2022-07-04T10:07:48;23.70;80.80
8537;DHT22;4306;50.210;10.628;2022-07-04T10:10:31;23.80;79.70
8537;DHT22;4306;50.210;10.628;2022-07-04T10:13:02;23.70;78.70
8537;DHT22;4306;50.210;10.628;2022-07-04T10:15:29;23.90;79.10
8537;DHT22;4306;50.210;10.628;2022-07-04T10:17:56;24.00;77.60
8537;DHT22;4306;50.210;10.628;2022-07-04T10:20:23;24.00;76.30
8537;DHT22;4306;50.210;10.628;2022-07-04T10:22:50;24.00;76.20
8537;DHT22;4306;50.210;10.628;2022-07-04T10:25:17;24.00;75.40
8537;DHT22;4306;50.210;10.628;2022-07-04T10:27:45;24.00;76.50
8537;DHT22;4306;50.210;10.628;2022-07-04T10:30:20;24.10;76.40
8537;DHT22;4306;50.210;10.628;2022-07-04T10:32:48;24.10;74.60
8537;DHT22;4306;50.210;10.628;2022-07-04T10:35:15;23.70;75.10
8537;DHT22;4306;50.210;10.628;2022-07-04T10:37:59;23.90;75.90
8537;DHT22;4306;50.210;10.628;2022-07-04T10:40:46;24.00;75.00
8537;DHT22;4306;50.210;10.628;2022-07-04T10:46:35;24.20;74.90
8537;DHT22;4306;50.210;10.628;2022-07-04T10:49:05;24.20;73.70
8537;DHT22;4306;50.210;10.628;2022-07-04T10:51:38;24.30;74.80
8537;DHT22;4306;50.210;10.628;2022-07-04T10:54:08;24.30;71.20
8537;DHT22;4306;50.210;10.628;2022-07-04T10:56:38;24.40;73.40
8537;DHT22;4306;50.210;10.628;2022-07-04T10:59:10;24.50;72.20
8537;DHT22;4306;50.210;10.628;2022-07-04T11:01:39;24.60;74.00
8537;DHT22;4306;50.210;10.628;2022-07-04T11:04:11;24.70;72.50
8537;DHT22;4306;50.210;10.628;2022-07-04T11:06:50;24.70;71.00
8537;DHT22;4306;50.210;10.628;2022-07-04T11:09:21;24.90;67.20
8537;DHT22;4306;50.210;10.628;2022-07-04T11:11:50;24.80;66.70
8537;DHT22;4306;50.210;10.628;2022-07-04T11:14:35;24.80;67.30
8537;DHT22;4306;50.210;10.628;2022-07-04T11:17:04;24.90;68.90
8537;DHT22;4306;50.210;10.628;2022-07-04T11:19:31;25.10;70.10
8537;DHT22;4306;50.210;10.628;2022-07-04T11:21:58;25.20;68.80
8537;DHT22;4306;50.210;10.628;2022-07-04T11:24:26;25.50;70.10
8537;DHT22;4306;50.210;10.628;2022-07-04T11:26:53;25.70;69.70
8537;DHT22;4306;50.210;10.628;2022-07-04T11:29:20;25.80;68.10
8537;DHT22;4306;50.210;10.628;2022-07-04T11:31:49;25.80;69.40
8537;DHT22;4306;50.210;10.628;2022-07-04T11:34:18;25.80;68.60
8537;DHT22;4306;50.210;10.628;2022-07-04T11:36:47;25.80;67.00
8537;DHT22;4306;50.210;10.628;2022-07-04T11:39:15;25.80;67.20
8537;DHT22;4306;50.210;10.628;2022-07-04T11:41:46;25.90;67.90
8537;DHT22;4306;50.210;10.628;2022-07-04T11:44:32;26.00;67.40
8537;DHT22;4306;50.210;10.628;2022-07-04T11:47:19;25.60;65.40
8537;DHT22;4306;50.210;10.628;2022-07-04T11:49:49;25.40;66.20
8537;DHT22;4306;50.210;10.628;2022-07-04T11:52:18;25.40;68.30
8537;DHT22;4306;50.210;10.628;2022-07-04T11:54:47;25.50;66.30
8537;DHT22;4306;50.210;10.628;2022-07-04T11:57:16;25.70;67.80
8537;DHT22;4306;50.210;10.628;2022-07-04T11:59:55;25.90;67.50
8537;DHT22;4306;50.210;10.628;2022-07-04T12:02:23;26.10;65.00
8537;DHT22;4306;50.210;10.628;2022-07-04T12:04:51;26.30;64.60
8537;DHT22;4306;50.210;10.628;2022-07-04T12:07:20;26.60;64.50
8537;DHT22;4306;50.210;10.628;2022-07-04T12:09:48;26.80;64.50
8537;DHT22;4306;50.210;10.628;2022-07-04T12:12:15;26.50;60.30
8537;DHT22;4306;50.210;10.628;2022-07-04T12:15:00;26.50;63.60
8537;DHT22;4306;50.210;10.628;2022-07-04T12:17:33;26.90;62.10
8537;DHT22;4306;50.210;10.628;2022-07-04T12:20:03;27.20;62.90
8537;DHT22;4306;50.210;10.628;2022-07-04T12:22:35;27.40;61.40
8537;DHT22;4306;50.210;10.628;2022-07-04T12:25:04;27.40;60.70
8537;DHT22;4306;50.210;10.628;2022-07-04T12:27:32;27.60;59.90
8537;DHT22;4306;50.210;10.628;2022-07-04T12:30:00;27.70;59.60
8537;DHT22;4306;50.210;10.628;2022-07-04T12:32:47;27.50;59.40
8537;DHT22;4306;50.210;10.628;2022-07-04T12:35:39;27.80;57.90
8537;DHT22;4306;50.210;10.628;2022-07-04T12:38:07;27.90;56.80
8537;DHT22;4306;50.210;10.628;2022-07-04T12:40:35;27.90;54.30
8537;DHT22;4306;50.210;10.628;2022-07-04T12:43:03;27.80;55.10
8537;DHT22;4306;50.210;10.628;2022-07-04T12:45:44;27.70;57.30
8537;DHT22;4306;50.210;10.628;2022-07-04T12:48:19;28.00;56.50
8537;DHT22;4306;50.210;10.628;2022-07-04T12:50:48;28.00;53.00
8537;DHT22;4306;50.210;10.628;2022-07-04T12:53:16;27.60;54.80
8537;DHT22;4306;50.210;10.628;2022-07-04T12:55:43;27.70;55.00
8537;DHT22;4306;50.210;10.628;2022-07-04T12:58:11;28.00;56.90
8537;DHT22;4306;50.210;10.628;2022-07-04T13:00:38;28.10;55.30
8537;DHT22;4306;50.210;10.628;2022-07-04T13:03:06;27.90;54.60
8537;DHT22;4306;50.210;10.628;2022-07-04T13:05:34;27.90;55.50
8537;DHT22;4306;50.210;10.628;2022-07-04T13:08:03;28.00;57.10
8537;DHT22;4306;50.210;10.628;2022-07-04T13:10:32;27.70;56.10
8537;DHT22;4306;50.210;10.628;2022-07-04T13:12:59;27.70;55.70
8537;DHT22;4306;50.210;10.628;2022-07-04T13:15:27;27.80;55.40
8537;DHT22;4306;50.210;10.628;2022-07-04T13:17:54;28.00;54.90
8537;DHT22;4306;50.210;10.628;2022-07-04T13:20:21;28.00;54.50
8537;DHT22;4306;50.210;10.628;2022-07-04T13:22:48;27.80;51.00
8537;DHT22;4306;50.210;10.628;2022-07-04T13:25:17;27.40;49.50
8537;DHT22;4306;50.210;10.628;2022-07-04T13:27:44;27.30;49.70
8537;DHT22;4306;50.210;10.628;2022-07-04T13:30:12;27.20;49.20
8537;DHT22;4306;50.210;10.628;2022-07-04T13:32:39;27.40;51.00
8537;DHT22;4306;50.210;10.628;2022-07-04T13:35:06;27.70;53.40
8537;DHT22;4306;50.210;10.628;2022-07-04T13:37:33;27.90;51.80
8537;DHT22;4306;50.210;10.628;2022-07-04T13:40:00;28.10;51.40
8537;DHT22;4306;50.210;10.628;2022-07-04T13:42:29;28.20;50.60
8537;DHT22;4306;50.210;10.628;2022-07-04T13:45:13;28.20;50.50
8537;DHT22;4306;50.210;10.628;2022-07-04T13:47:41;28.20;49.30
8537;DHT22;4306;50.210;10.628;2022-07-04T13:50:09;27.60;50.80
8537;DHT22;4306;50.210;10.628;2022-07-04T13:52:36;27.90;49.80
8537;DHT22;4306;50.210;10.628;2022-07-04T13:55:03;28.10;51.10
8537;DHT22;4306;50.210;10.628;2022-07-04T13:57:32;28.20;49.00
8537;DHT22;4306;50.210;10.628;2022-07-04T13:59:59;28.00;50.50
8537;DHT22;4306;50.210;10.628;2022-07-04T14:02:26;27.80;47.80
8537;DHT22;4306;50.210;10.628;2022-07-04T14:04:53;28.00;49.70
8537;DHT22;4306;50.210;10.628;2022-07-04T14:07:20;28.10;49.00
8537;DHT22;4306;50.210;10.628;2022-07-04T14:09:46;28.20;49.00
8537;DHT22;4306;50.210;10.628;2022-07-04T14:12:14;28.40;49.50
8537;DHT22;4306;50.210;10.628;2022-07-04T14:14:43;28.10;46.80
8537;DHT22;4306;50.210;10.628;2022-07-04T14:17:10;27.70;48.30
8537;DHT22;4306;50.210;10.628;2022-07-04T14:19:37;28.00;50.50
8537;DHT22;4306;50.210;10.628;2022-07-04T14:22:04;27.60;47.70
8537;DHT22;4306;50.210;10.628;2022-07-04T14:24:31;28.00;50.70
8537;DHT22;4306;50.210;10.628;2022-07-04T14:26:58;28.30;51.10
8537;DHT22;4306;50.210;10.628;2022-07-04T14:29:25;28.30;48.40
8537;DHT22;4306;50.210;10.628;2022-07-04T14:31:53;28.30;48.80
8537;DHT22;4306;50.210;10.628;2022-07-04T14:34:20;28.00;48.50
8537;DHT22;4306;50.210;10.628;2022-07-04T14:36:48;27.40;51.60
8537;DHT22;4306;50.210;10.628;2022-07-04T14:39:15;27.70;50.40
8537;DHT22;4306;50.210;10.628;2022-07-04T14:41:42;27.80;51.00
8537;DHT22;4306;50.210;10.628;2022-07-04T14:44:09;28.10;51.50
8537;DHT22;4306;50.210;10.628;2022-07-04T14:46:36;28.00;50.00
8537;DHT22;4306;50.210;10.628;2022-07-04T14:49:05;28.10;49.60
8537;DHT22;4306;50.210;10.628;2022-07-04T14:51:32;27.00;49.50
8537;DHT22;4306;50.210;10.628;2022-07-04T14:53:59;27.40;51.00
8537;DHT22;4306;50.210;10.628;2022-07-04T14:56:26;27.10;50.20
8537;DHT22;4306;50.210;10.628;2022-07-04T14:58:53;27.00;50.60
8537;DHT22;4306;50.210;10.628;2022-07-04T15:01:20;26.90;50.60
8537;DHT22;4306;50.210;10.628;2022-07-04T15:03:47;27.30;51.30
8537;DHT22;4306;50.210;10.628;2022-07-04T15:06:15;27.70;52.40
8537;DHT22;4306;50.210;10.628;2022-07-04T15:08:42;27.90;50.50
8537;DHT22;4306;50.210;10.628;2022-07-04T15:11:09;27.90;49.80
8537;DHT22;4306;50.210;10.628;2022-07-04T15:13:37;28.00;50.80
8537;DHT22;4306;50.210;10.628;2022-07-04T15:16:05;28.10;51.30
8537;DHT22;4306;50.210;10.628;2022-07-04T15:18:34;28.00;47.90
8537;DHT22;4306;50.210;10.628;2022-07-04T15:21:01;27.80;49.70
8537;DHT22;4306;50.210;10.628;2022-07-04T15:23:47;27.90;50.10
8537;DHT22;4306;50.210;10.628;2022-07-04T15:26:31;28.10;49.60
8537;DHT22;4306;50.210;10.628;2022-07-04T15:28:59;28.40;50.50
8537;DHT22;4306;50.210;10.628;2022-07-04T15:31:26;28.30;47.70
8537;DHT22;4306;50.210;10.628;2022-07-04T15:33:53;28.40;49.70
8537;DHT22;4306;50.210;10.628;2022-07-04T15:36:20;28.40;46.90
8537;DHT22;4306;50.210;10.628;2022-07-04T15:38:49;28.40;48.50
8537;DHT22;4306;50.210;10.628;2022-07-04T15:41:16;28.50;47.50
8537;DHT22;4306;50.210;10.628;2022-07-04T15:43:43;28.40;48.90
8537;DHT22;4306;50.210;10.628;2022-07-04T15:46:10;28.50;48.70
8537;DHT22;4306;50.210;10.628;2022-07-04T15:48:37;28.60;48.30
8537;DHT22;4306;50.210;10.628;2022-07-04T15:51:04;28.50;47.70
8537;DHT22;4306;50.210;10.628;2022-07-04T15:53:31;28.50;47.60
8537;DHT22;4306;50.210;10.628;2022-07-04T15:56:00;28.40;48.20